createdAt,value
2023-01-30T00:01:29.279Z,-1.06
2023-01-30T00:03:57.587Z,-1.06
2023-01-30T00:06:26.647Z,-1.06
2023-01-30T00:08:55.162Z,-1.07
2023-01-30T00:11:23.612Z,-1.08
2023-01-30T00:13:52.289Z,-1.09
2023-01-30T00:16:20.529Z,-1.11
2023-01-30T00:18:48.672Z,-1.12
2023-01-30T00:21:17.318Z,-1.12
2023-01-30T00:23:45.759Z,-1.10
2023-01-30T00:26:14.227Z,-1.10
2023-01-30T00:28:43.792Z,-1.11
2023-01-30T00:31:11.996Z,-1.14
2023-01-30T00:33:40.271Z,-1.17
2023-01-30T00:36:10.244Z,-1.20
2023-01-30T00:38:39.277Z,-1.21
2023-01-30T00:41:10.761Z,-1.22
2023-01-30T00:43:57.369Z,-1.21
2023-01-30T00:46:49.730Z,-1.20
2023-01-30T00:49:18.616Z,-1.20
2023-01-30T00:51:47.232Z,-1.22
2023-01-30T00:54:15.425Z,-1.25
2023-01-30T00:56:43.449Z,-1.23
2023-01-30T00:59:11.843Z,-1.23
2023-01-30T01:01:39.887Z,-1.25
2023-01-30T01:04:10.411Z,-1.26
2023-01-30T01:06:39.076Z,-1.28
2023-01-30T01:09:07.418Z,-1.30
2023-01-30T01:11:36.148Z,-1.31
2023-01-30T01:14:06.003Z,-1.31
2023-01-30T01:16:35.196Z,-1.31
2023-01-30T01:19:03.899Z,-1.31
2023-01-30T01:21:32.257Z,-1.33
2023-01-30T01:24:01.087Z,-1.34
2023-01-30T01:26:29.536Z,-1.37
2023-01-30T01:28:59.160Z,-1.40
2023-01-30T01:31:27.376Z,-1.41
2023-01-30T01:33:57.798Z,-1.41
2023-01-30T01:36:53.218Z,-1.39
2023-01-30T01:39:17.375Z,-1.39
2023-01-30T01:41:45.866Z,-1.41
2023-01-30T01:44:17.229Z,-1.42
2023-01-30T01:46:52.403Z,-1.43
2023-01-30T01:49:26.268Z,-1.44
2023-01-30T01:52:04.187Z,-1.46
2023-01-30T01:54:42.617Z,-1.48
2023-01-30T01:57:36.507Z,-1.49
2023-01-30T02:00:12.324Z,-1.50
2023-01-30T02:06:07.675Z,-1.51
2023-01-30T02:08:47.162Z,-1.51
2023-01-30T02:11:21.585Z,-1.53
2023-01-30T02:13:50.838Z,-1.55
2023-01-30T02:16:22.748Z,-1.59
2023-01-30T02:18:51.095Z,-1.61
2023-01-30T02:21:34.261Z,-1.64
2023-01-30T02:24:16.189Z,-1.67
2023-01-30T02:26:59.812Z,-1.67
2023-01-30T02:29:30.665Z,-1.67
2023-01-30T02:32:09.673Z,-1.69
2023-01-30T02:34:59.899Z,-1.72
2023-01-30T02:37:37.056Z,-1.75
2023-01-30T02:40:16.816Z,-1.76
2023-01-30T02:42:49.785Z,-1.74
2023-01-30T02:45:21.547Z,-1.72
2023-01-30T02:48:13.074Z,-1.72
2023-01-30T02:50:51.110Z,-1.71
2023-01-30T02:53:19.518Z,-1.72
2023-01-30T02:55:48.280Z,-1.74
2023-01-30T02:58:22.032Z,-1.75
2023-01-30T03:01:27.925Z,-1.75
2023-01-30T03:04:09.533Z,-1.75
2023-01-30T03:06:59.171Z,-1.74
2023-01-30T03:10:13.199Z,-1.74
2023-01-30T03:13:27.279Z,-1.77
2023-01-30T03:16:03.128Z,-1.81
2023-01-30T03:18:31.437Z,-1.84
2023-01-30T03:21:07.469Z,-1.87
2023-01-30T03:23:35.809Z,-1.87
2023-01-30T03:26:06.183Z,-1.87
2023-01-30T03:28:35.178Z,-1.86
2023-01-30T03:31:03.653Z,-1.86
2023-01-30T03:33:31.996Z,-1.87
2023-01-30T03:36:00.223Z,-1.88
2023-01-30T03:38:28.582Z,-1.90
2023-01-30T03:40:56.795Z,-1.91
2023-01-30T03:43:24.946Z,-1.93
2023-01-30T03:45:53.272Z,-1.94
2023-01-30T03:48:22.075Z,-1.95
2023-01-30T03:50:50.146Z,-1.95
2023-01-30T03:53:18.266Z,-1.93
2023-01-30T03:55:46.432Z,-1.91
2023-01-30T03:58:14.632Z,-1.89
2023-01-30T04:00:43.551Z,-1.89
2023-01-30T04:03:12.011Z,-1.90
2023-01-30T04:05:42.869Z,-1.93
2023-01-30T04:08:11.087Z,-1.95
2023-01-30T04:10:39.757Z,-1.97
2023-01-30T04:13:08.149Z,-1.98
2023-01-30T04:15:36.364Z,-1.97
2023-01-30T04:18:19.248Z,-1.96
2023-01-30T04:20:59.761Z,-1.96
2023-01-30T04:23:34.188Z,-1.96
2023-01-30T04:26:05.518Z,-1.98
2023-01-30T04:28:35.780Z,-2.00
2023-01-30T04:31:04.770Z,-2.04
2023-01-30T04:33:42.365Z,-2.05
2023-01-30T04:36:10.789Z,-2.06
2023-01-30T04:38:39.736Z,-2.05
2023-01-30T04:41:08.385Z,-2.02
2023-01-30T04:43:38.632Z,-2.02
2023-01-30T04:46:16.153Z,-2.04
2023-01-30T04:48:44.623Z,-2.07
2023-01-30T04:51:12.741Z,-2.10
2023-01-30T04:53:41.418Z,-2.13
2023-01-30T04:56:09.720Z,-2.13
2023-01-30T04:58:37.805Z,-2.13
2023-01-30T05:01:30.393Z,-2.13
2023-01-30T05:03:59.595Z,-2.15
2023-01-30T05:06:28.385Z,-2.17
2023-01-30T05:08:57.765Z,-2.19
2023-01-30T05:11:27.373Z,-2.21
2023-01-30T05:13:55.859Z,-2.23
2023-01-30T05:16:25.069Z,-2.25
2023-01-30T05:18:53.117Z,-2.29
2023-01-30T05:21:25.531Z,-2.31
2023-01-30T05:23:54.398Z,-2.33
2023-01-30T05:26:23.438Z,-2.35
2023-01-30T05:28:53.620Z,-2.37
2023-01-30T05:31:21.719Z,-2.37
2023-01-30T05:33:52.431Z,-2.36
2023-01-30T05:36:22.923Z,-2.34
2023-01-30T05:38:51.378Z,-2.31
2023-01-30T05:41:19.420Z,-2.28
2023-01-30T05:43:51.218Z,-2.26
2023-01-30T05:46:20.030Z,-2.25
2023-01-30T05:48:48.351Z,-2.24
2023-01-30T05:51:19.223Z,-2.25
2023-01-30T05:53:47.678Z,-2.29
2023-01-30T05:56:16.378Z,-2.33
2023-01-30T05:58:49.730Z,-2.34
2023-01-30T06:01:18.349Z,-2.35
2023-01-30T06:03:46.748Z,-2.38
2023-01-30T06:06:15.091Z,-2.40
2023-01-30T06:08:43.308Z,-2.43
2023-01-30T06:11:13.662Z,-2.47
2023-01-30T06:13:42.326Z,-2.49
2023-01-30T06:16:12.703Z,-2.51
2023-01-30T06:18:40.868Z,-2.52
2023-01-30T06:21:10.052Z,-2.51
2023-01-30T06:23:39.187Z,-2.51
2023-01-30T06:26:09.251Z,-2.51
2023-01-30T06:28:37.816Z,-2.51
2023-01-30T06:31:07.753Z,-2.53
2023-01-30T06:33:35.917Z,-2.53
2023-01-30T06:36:04.475Z,-2.52
2023-01-30T06:38:33.052Z,-2.51
2023-01-30T06:41:01.241Z,-2.51
2023-01-30T06:43:29.443Z,-2.50
2023-01-30T06:45:59.747Z,-2.49
2023-01-30T06:48:27.981Z,-2.49
2023-01-30T06:50:56.312Z,-2.50
2023-01-30T06:53:30.257Z,-2.51
2023-01-30T06:56:00.233Z,-2.49
2023-01-30T06:58:28.623Z,-2.46
2023-01-30T07:00:57.077Z,-2.42
2023-01-30T07:03:25.547Z,-2.39
2023-01-30T07:05:53.766Z,-2.36
2023-01-30T07:08:24.129Z,-2.33
2023-01-30T07:10:52.608Z,-2.30
2023-01-30T07:13:20.879Z,-2.26
2023-01-30T07:15:48.915Z,-2.24
2023-01-30T07:18:17.134Z,-2.21
2023-01-30T07:20:49.014Z,-2.18
2023-01-30T07:23:18.426Z,-2.13
2023-01-30T07:25:46.592Z,-2.11
2023-01-30T07:28:14.638Z,-2.09
2023-01-30T07:30:42.979Z,-2.08
2023-01-30T07:33:11.373Z,-2.06
2023-01-30T07:35:39.486Z,-2.05
2023-01-30T07:38:07.733Z,-2.03
2023-01-30T07:40:36.025Z,-2.02
2023-01-30T07:43:07.048Z,-2.01
2023-01-30T07:45:37.062Z,-1.98
2023-01-30T07:48:05.983Z,-1.97
2023-01-30T07:50:34.253Z,-1.95
2023-01-30T07:53:07.343Z,-1.91
2023-01-30T07:55:35.820Z,-1.88
2023-01-30T07:58:04.432Z,-1.86
2023-01-30T08:00:33.165Z,-1.85
2023-01-30T08:03:01.277Z,-1.85
2023-01-30T08:05:29.328Z,-1.86
2023-01-30T08:07:57.856Z,-1.85
2023-01-30T08:10:26.070Z,-1.84
2023-01-30T08:12:54.226Z,-1.83
2023-01-30T08:15:23.211Z,-1.81
2023-01-30T08:17:56.172Z,-1.79
2023-01-30T08:20:26.263Z,-1.75
2023-01-30T08:22:55.275Z,-1.74
2023-01-30T08:25:23.636Z,-1.73
2023-01-30T08:27:52.557Z,-1.70
2023-01-30T08:30:22.343Z,-1.67
2023-01-30T08:32:50.514Z,-1.64
2023-01-30T08:35:18.988Z,-1.58
2023-01-30T08:37:47.111Z,-1.52
2023-01-30T08:40:15.764Z,-1.48
2023-01-30T08:42:45.684Z,-1.44
2023-01-30T08:45:14.482Z,-1.39
2023-01-30T08:47:42.598Z,-1.36
2023-01-30T08:50:11.186Z,-1.30
2023-01-30T08:52:39.368Z,-1.22
2023-01-30T08:55:07.735Z,-1.13
2023-01-30T08:57:36.301Z,-1.05
2023-01-30T09:00:05.548Z,-0.99
2023-01-30T09:02:33.643Z,-0.98
2023-01-30T09:05:02.193Z,-0.97
2023-01-30T09:07:30.305Z,-0.95
2023-01-30T09:09:58.442Z,-0.94
2023-01-30T09:12:27.483Z,-0.92
2023-01-30T09:14:58.000Z,-0.90
2023-01-30T09:17:26.452Z,-0.92
2023-01-30T09:19:55.028Z,-0.93
2023-01-30T09:22:23.164Z,-0.92
2023-01-30T09:24:51.288Z,-0.92
2023-01-30T09:27:20.249Z,-0.93
2023-01-30T09:29:48.830Z,-0.94
2023-01-30T09:32:17.058Z,-0.96
2023-01-30T09:34:45.781Z,-0.98
2023-01-30T09:37:14.955Z,-1.02
2023-01-30T09:39:42.964Z,-1.07
2023-01-30T09:42:29.142Z,-1.07
2023-01-30T09:45:32.615Z,-1.04
2023-01-30T09:48:45.001Z,-1.03
2023-01-30T09:51:57.739Z,-1.03
2023-01-30T09:54:31.257Z,-0.98
2023-01-30T09:57:22.595Z,-0.96
2023-01-30T10:00:10.212Z,-0.92
2023-01-30T10:02:59.754Z,-0.88
2023-01-30T10:05:35.590Z,-0.85
2023-01-30T10:08:15.712Z,-0.83
2023-01-30T10:11:00.787Z,-0.79
2023-01-30T10:14:11.516Z,-0.77
2023-01-30T10:17:32.804Z,-0.76
2023-01-30T10:20:16.384Z,-0.75
2023-01-30T10:23:09.427Z,-0.73
2023-01-30T10:25:52.704Z,-0.69
2023-01-30T10:28:29.572Z,-0.64
2023-01-30T10:31:05.626Z,-0.56
2023-01-30T10:33:40.903Z,-0.50
2023-01-30T10:36:22.427Z,-0.45
2023-01-30T10:38:53.562Z,-0.45
2023-01-30T10:41:31.003Z,-0.46
2023-01-30T10:44:15.015Z,-0.44
2023-01-30T10:46:49.232Z,-0.40
2023-01-30T10:49:47.187Z,-0.33
2023-01-30T10:52:40.940Z,-0.22
2023-01-30T10:55:12.468Z,-0.15
2023-01-30T10:57:58.702Z,-0.17
2023-01-30T11:00:51.209Z,-0.20
2023-01-30T11:03:31.941Z,-0.20
2023-01-30T11:06:16.946Z,-0.20
2023-01-30T11:08:45.093Z,-0.23
2023-01-30T11:11:30.070Z,-0.25
2023-01-30T11:14:09.799Z,-0.20
2023-01-30T11:16:49.714Z,-0.16
2023-01-30T11:19:22.810Z,-0.18
2023-01-30T11:21:53.869Z,-0.17
2023-01-30T11:24:29.739Z,-0.11
2023-01-30T11:27:17.920Z,-0.10
2023-01-30T11:29:46.527Z,-0.14
2023-01-30T11:32:27.717Z,-0.16
2023-01-30T11:35:04.680Z,-0.14
2023-01-30T11:37:35.524Z,-0.10
2023-01-30T11:40:21.243Z,-0.04
2023-01-30T11:43:04.131Z,-0.03
2023-01-30T11:45:44.391Z,-0.02
2023-01-30T11:48:32.930Z,-0.02
2023-01-30T11:51:11.134Z,0.00
2023-01-30T11:53:41.681Z,0.01
2023-01-30T11:56:17.891Z,0.02
2023-01-30T11:58:58.406Z,0.00
2023-01-30T12:01:30.209Z,0.03
2023-01-30T12:03:59.657Z,0.12
2023-01-30T12:06:34.781Z,0.29
2023-01-30T12:09:04.555Z,0.36
2023-01-30T12:11:42.475Z,0.35
2023-01-30T12:14:30.112Z,0.33
2023-01-30T12:17:21.380Z,0.33
2023-01-30T12:20:00.541Z,0.34
2023-01-30T12:23:05.611Z,0.42
2023-01-30T12:25:55.458Z,0.42
2023-01-30T12:28:32.338Z,0.38
2023-01-30T12:31:30.352Z,0.32
2023-01-30T12:33:59.270Z,0.26
2023-01-30T12:36:52.224Z,0.22
2023-01-30T12:39:51.805Z,0.19
2023-01-30T12:42:32.863Z,0.15
2023-01-30T12:45:21.510Z,0.11
2023-01-30T12:48:30.916Z,0.04
2023-01-30T12:51:17.616Z,0.07
2023-01-30T12:53:58.298Z,0.09
2023-01-30T12:56:39.500Z,0.09
2023-01-30T12:59:12.219Z,0.11
2023-01-30T13:02:15.756Z,0.14
2023-01-30T13:05:12.061Z,0.22
2023-01-30T13:08:04.062Z,0.27
2023-01-30T13:11:03.368Z,0.29
2023-01-30T13:13:46.937Z,0.29
2023-01-30T13:16:39.080Z,0.30
2023-01-30T13:19:31.155Z,0.33
2023-01-30T13:22:23.933Z,0.32
2023-01-30T13:25:13.119Z,0.32
2023-01-30T13:27:47.159Z,0.28
2023-01-30T13:30:18.249Z,0.26
2023-01-30T13:32:50.137Z,0.24
2023-01-30T13:35:23.345Z,0.23
2023-01-30T13:37:53.122Z,0.24
2023-01-30T13:40:38.725Z,0.27
2023-01-30T13:43:30.807Z,0.29
2023-01-30T13:46:04.804Z,0.29
2023-01-30T13:49:20.760Z,0.29
2023-01-30T13:51:54.135Z,0.28
2023-01-30T13:54:22.264Z,0.25
2023-01-30T13:57:08.945Z,0.22
2023-01-30T14:00:16.248Z,0.17
2023-01-30T14:03:03.280Z,0.14
2023-01-30T14:06:02.147Z,0.11
2023-01-30T14:08:45.545Z,0.10
2023-01-30T14:11:33.899Z,0.11
2023-01-30T14:14:22.675Z,0.15
2023-01-30T14:16:54.260Z,0.20
2023-01-30T14:19:34.155Z,0.20
2023-01-30T14:22:17.753Z,0.19
2023-01-30T14:25:25.197Z,0.18
2023-01-30T14:28:05.823Z,0.16
2023-01-30T14:30:53.479Z,0.16
2023-01-30T14:33:21.860Z,0.15
2023-01-30T14:36:02.291Z,0.15
2023-01-30T14:38:32.237Z,0.13
2023-01-30T14:41:00.520Z,0.13
2023-01-30T14:43:43.873Z,0.14
2023-01-30T14:46:32.048Z,0.13
2023-01-30T14:49:28.530Z,0.17
2023-01-30T14:51:57.152Z,0.16
2023-01-30T14:54:41.529Z,0.15
2023-01-30T14:57:21.346Z,0.14
2023-01-30T15:00:17.131Z,0.14
2023-01-30T15:02:59.510Z,0.13
2023-01-30T15:05:32.775Z,0.15
2023-01-30T15:08:18.838Z,0.16
2023-01-30T15:11:04.955Z,0.16
2023-01-30T15:13:51.284Z,0.18
2023-01-30T15:16:48.832Z,0.17
2023-01-30T15:19:26.140Z,0.17
2023-01-30T15:22:16.409Z,0.15
2023-01-30T15:24:47.630Z,0.13
2023-01-30T15:27:48.478Z,0.11
2023-01-30T15:30:25.826Z,0.10
2023-01-30T15:33:19.905Z,0.11
2023-01-30T15:35:51.042Z,0.12
2023-01-30T15:38:26.402Z,0.14
2023-01-30T15:40:56.771Z,0.15
2023-01-30T15:43:55.927Z,0.15
2023-01-30T15:46:39.061Z,0.17
2023-01-30T15:49:22.379Z,0.19
2023-01-30T15:51:52.633Z,0.21
2023-01-30T15:54:24.419Z,0.26
2023-01-30T15:57:01.028Z,0.30
2023-01-30T15:59:36.434Z,0.33
2023-01-30T16:02:25.926Z,0.35
2023-01-30T16:05:20.546Z,0.36
2023-01-30T16:07:51.372Z,0.37
2023-01-30T16:10:22.771Z,0.38
2023-01-30T16:12:56.197Z,0.38
2023-01-30T16:15:36.651Z,0.38
2023-01-30T16:18:36.029Z,0.41
2023-01-30T16:21:08.447Z,0.44
2023-01-30T16:23:38.126Z,0.45
2023-01-30T16:26:22.045Z,0.46
2023-01-30T16:28:51.651Z,0.47
2023-01-30T16:31:20.011Z,0.45
2023-01-30T16:33:52.215Z,0.44
2023-01-30T16:36:20.369Z,0.44
2023-01-30T16:38:50.694Z,0.45
2023-01-30T16:41:36.617Z,0.47
2023-01-30T16:44:25.493Z,0.49
2023-01-30T16:47:06.922Z,0.49
2023-01-30T16:49:44.255Z,0.51
2023-01-30T16:52:19.035Z,0.53
2023-01-30T16:54:53.904Z,0.54
2023-01-30T16:57:28.836Z,0.55
2023-01-30T16:59:58.093Z,0.54
2023-01-30T17:02:37.464Z,0.53
2023-01-30T17:05:39.436Z,0.53
2023-01-30T17:08:39.872Z,0.52
2023-01-30T17:11:08.207Z,0.52
2023-01-30T17:13:44.483Z,0.51
2023-01-30T17:16:22.142Z,0.52
2023-01-30T17:18:52.399Z,0.52
2023-01-30T17:21:22.568Z,0.55
2023-01-30T17:23:58.849Z,0.56
2023-01-30T17:26:27.834Z,0.57
2023-01-30T17:28:56.408Z,0.58
2023-01-30T17:31:25.071Z,0.56
2023-01-30T17:33:53.353Z,0.57
2023-01-30T17:36:26.282Z,0.57
2023-01-30T17:38:55.326Z,0.59
2023-01-30T17:41:30.440Z,0.60
2023-01-30T17:43:59.458Z,0.60
2023-01-30T17:46:35.413Z,0.61
2023-01-30T17:49:04.140Z,0.63
2023-01-30T17:51:32.507Z,0.66
2023-01-30T17:54:00.650Z,0.67
2023-01-30T17:56:38.067Z,0.66
2023-01-30T17:59:13.820Z,0.65
2023-01-30T18:01:43.538Z,0.65
2023-01-30T18:04:11.792Z,0.64
2023-01-30T18:06:42.066Z,0.65
2023-01-30T18:09:21.945Z,0.66
2023-01-30T18:11:51.330Z,0.66
2023-01-30T18:14:19.618Z,0.68
2023-01-30T18:16:48.020Z,0.69
2023-01-30T18:19:24.302Z,0.71
2023-01-30T18:21:53.008Z,0.73
2023-01-30T18:24:21.112Z,0.73
2023-01-30T18:26:49.302Z,0.72
2023-01-30T18:29:17.845Z,0.71
2023-01-30T18:31:46.128Z,0.71
2023-01-30T18:34:14.876Z,0.71
2023-01-30T18:36:43.312Z,0.72
2023-01-30T18:39:13.122Z,0.73
2023-01-30T18:41:41.758Z,0.73
2023-01-30T18:44:10.683Z,0.73
2023-01-30T18:46:39.180Z,0.75
2023-01-30T18:49:09.010Z,0.75
2023-01-30T18:51:37.476Z,0.74
2023-01-30T18:54:05.526Z,0.72
2023-01-30T18:56:34.540Z,0.70
2023-01-30T18:59:05.516Z,0.69
2023-01-30T19:01:39.293Z,0.67
2023-01-30T19:04:10.519Z,0.65
2023-01-30T19:06:42.497Z,0.63
2023-01-30T19:09:15.814Z,0.61
2023-01-30T19:12:02.670Z,0.61
2023-01-30T19:14:31.137Z,0.61
2023-01-30T19:16:59.193Z,0.61
2023-01-30T19:19:28.323Z,0.62
2023-01-30T19:21:56.591Z,0.61
2023-01-30T19:24:25.089Z,0.61
2023-01-30T19:26:53.433Z,0.60
2023-01-30T19:29:21.781Z,0.60
2023-01-30T19:31:50.226Z,0.61
2023-01-30T19:34:18.563Z,0.62
2023-01-30T19:36:47.038Z,0.61
2023-01-30T19:39:15.140Z,0.61
2023-01-30T19:41:43.382Z,0.61
2023-01-30T19:44:12.226Z,0.61
2023-01-30T19:46:40.608Z,0.57
2023-01-30T19:49:11.696Z,0.55
2023-01-30T19:51:41.809Z,0.51
2023-01-30T19:54:11.362Z,0.47
2023-01-30T19:56:42.106Z,0.44
2023-01-30T19:59:12.833Z,0.43
2023-01-30T20:01:41.090Z,0.41
2023-01-30T20:04:09.645Z,0.41
2023-01-30T20:06:42.983Z,0.42
2023-01-30T20:09:11.504Z,0.44
2023-01-30T20:11:41.032Z,0.43
2023-01-30T20:14:10.878Z,0.43
2023-01-30T20:16:39.752Z,0.39
2023-01-30T20:19:12.981Z,0.33
2023-01-30T20:21:42.213Z,0.30
2023-01-30T20:24:15.053Z,0.30
2023-01-30T20:26:47.827Z,0.29
2023-01-30T20:29:18.010Z,0.26
2023-01-30T20:31:46.257Z,0.21
2023-01-30T20:34:15.116Z,0.20
2023-01-30T20:36:43.730Z,0.21
2023-01-30T20:39:12.387Z,0.20
2023-01-30T20:41:40.566Z,0.19
2023-01-30T20:44:12.555Z,0.19
2023-01-30T20:46:44.442Z,0.22
2023-01-30T20:49:20.717Z,0.22
2023-01-30T20:51:51.280Z,0.21
2023-01-30T20:54:21.676Z,0.19
2023-01-30T20:56:51.920Z,0.19
2023-01-30T20:59:24.425Z,0.20
2023-01-30T21:01:53.282Z,0.21
2023-01-30T21:04:24.755Z,0.22
2023-01-30T21:06:53.273Z,0.22
2023-01-30T21:09:24.188Z,0.23
2023-01-30T21:11:53.424Z,0.23
2023-01-30T21:14:22.022Z,0.22
2023-01-30T21:16:50.212Z,0.22
2023-01-30T21:19:18.586Z,0.22
2023-01-30T21:21:55.233Z,0.23
2023-01-30T21:24:28.845Z,0.22
2023-01-30T21:26:57.207Z,0.20
2023-01-30T21:29:27.459Z,0.21
2023-01-30T21:31:57.383Z,0.22
2023-01-30T21:34:25.928Z,0.25
2023-01-30T21:37:12.766Z,0.27
2023-01-30T21:40:00.143Z,0.30
2023-01-30T21:42:46.874Z,0.34
2023-01-30T21:45:15.902Z,0.36
2023-01-30T21:47:44.519Z,0.38
2023-01-30T21:50:12.884Z,0.42
2023-01-30T21:52:41.363Z,0.43
2023-01-30T21:55:09.668Z,0.45
2023-01-30T21:57:37.820Z,0.47
2023-01-30T22:00:06.579Z,0.48
2023-01-30T22:02:34.780Z,0.51
2023-01-30T22:05:02.907Z,0.53
2023-01-30T22:07:32.201Z,0.54
2023-01-30T22:10:02.240Z,0.56
2023-01-30T22:12:32.104Z,0.56
2023-01-30T22:15:00.293Z,0.57
2023-01-30T22:17:28.579Z,0.57
2023-01-30T22:19:56.685Z,0.58
2023-01-30T22:22:31.434Z,0.58
2023-01-30T22:24:59.616Z,0.58
2023-01-30T22:27:28.255Z,0.58
2023-01-30T22:29:56.495Z,0.59
2023-01-30T22:32:24.746Z,0.58
2023-01-30T22:34:52.987Z,0.59
2023-01-30T22:37:21.217Z,0.61
2023-01-30T22:39:49.299Z,0.63
2023-01-30T22:42:17.409Z,0.65
2023-01-30T22:44:45.567Z,0.65
2023-01-30T22:47:13.965Z,0.65
2023-01-30T22:49:42.242Z,0.65
2023-01-30T22:52:10.371Z,0.63
2023-01-30T22:54:38.436Z,0.62
2023-01-30T22:57:06.660Z,0.62
2023-01-30T22:59:34.791Z,0.62
2023-01-30T23:02:04.210Z,0.62
2023-01-30T23:04:32.374Z,0.61
2023-01-30T23:07:00.453Z,0.63
2023-01-30T23:09:28.741Z,0.65
2023-01-30T23:12:16.931Z,0.65
2023-01-30T23:14:45.208Z,0.66
2023-01-30T23:17:32.157Z,0.68
2023-01-30T23:20:00.586Z,0.69
2023-01-30T23:22:28.928Z,0.71
2023-01-30T23:24:57.065Z,0.72
2023-01-30T23:27:25.105Z,0.74
2023-01-30T23:29:53.230Z,0.74
2023-01-30T23:32:23.707Z,0.74
2023-01-30T23:34:52.072Z,0.74
2023-01-30T23:37:40.362Z,0.74
2023-01-30T23:40:09.359Z,0.74
2023-01-30T23:42:37.671Z,0.73
2023-01-30T23:45:06.375Z,0.74
2023-01-30T23:47:35.290Z,0.74
2023-01-30T23:50:03.529Z,0.74
2023-01-30T23:52:31.794Z,0.73
2023-01-30T23:54:59.878Z,0.73
2023-01-30T23:57:28.032Z,0.72
2023-01-30T23:59:56.187Z,0.71
